Time;durP1;ratioP1;P1;durP2;ratioP2;P2;SDS_P1;SDS_P2;PMS_P1;PMS_P2;Temp;Humidity;BMP_temperature;BMP_pressure;BME280_temperature;BME280_humidity;BME280_pressure;Samples;Min_cycle;Max_cycle;Signal;HPM_P1;HPM_P2
2022/05/24 00:00:56;;;;;;;;;22.75;22.00;;;;;14.79;74.10;99988.53;5092355;28;9897;-66
2022/05/24 00:03:22;;;;;;;;;25.50;23.25;;;;;14.82;74.11;99988.03;5079508;28;9991;-66
2022/05/24 00:05:49;;;;;;;;;21.00;19.00;;;;;14.82;74.05;99982.63;5091804;28;9887;-67
2022/05/24 00:08:16;;;;;;;;;18.75;15.75;;;;;14.82;74.03;99982.63;5074492;28;9768;-67
2022/05/24 00:10:46;;;;;;;;;29.25;26.50;;;;;14.77;73.87;99982.53;5071484;28;9985;-66
2022/05/24 00:13:13;;;;;;;;;25.75;25.00;;;;;14.72;74.08;99978.91;5053762;28;10189;-66
2022/05/24 00:15:40;;;;;;;;;28.00;26.75;;;;;14.71;74.48;99979.97;5071662;28;10149;-66
2022/05/24 00:18:14;;;;;;;;;28.25;24.00;;;;;14.74;74.28;99976.75;5068012;28;10254;-66
2022/05/24 00:20:45;;;;;;;;;23.75;20.50;;;;;14.75;74.53;99973.84;5090661;28;10071;-66
2022/05/24 00:23:12;;;;;;;;;21.75;19.50;;;;;14.78;74.45;99969.81;5091181;28;10640;-66
2022/05/24 00:25:43;;;;;;;;;21.25;19.00;;;;;14.76;74.54;99972.75;5090336;28;9773;-66
2022/05/24 00:28:12;;;;;;;;;19.25;18.50;;;;;14.78;74.72;99967.09;5057420;28;10007;-66
2022/05/24 00:30:40;;;;;;;;;31.00;28.75;;;;;14.79;74.38;99975.00;5071121;28;9770;-66
2022/05/24 00:33:06;;;;;;;;;24.25;22.75;;;;;14.74;74.49;99974.88;5071057;28;10922;-67
2022/05/24 00:35:34;;;;;;;;;24.25;22.50;;;;;14.74;74.84;99987.59;5053868;28;9846;-66
2022/05/24 00:38:00;;;;;;;;;16.75;16.00;;;;;14.75;74.92;99981.16;5076087;28;10081;-66
2022/05/24 00:40:34;;;;;;;;;22.50;22.50;;;;;14.75;74.70;99971.13;5071248;28;9735;-66
2022/05/24 00:43:05;;;;;;;;;22.00;20.00;;;;;14.75;74.73;99973.00;5071159;28;10808;-67
2022/05/24 00:45:37;;;;;;;;;25.75;24.00;;;;;14.71;74.68;99978.09;5071129;28;9887;-66
2022/05/24 00:48:37;;;;;;;;;26.00;21.75;;;;;14.68;74.93;99973.16;5085286;28;10823;-66
2022/05/24 00:51:08;;;;;;;;;21.75;19.00;;;;;14.68;74.93;99958.78;5088557;28;9841;-66
2022/05/24 00:53:40;;;;;;;;;32.75;30.25;;;;;14.68;74.79;99969.63;5077405;28;10734;-66
2022/05/24 00:56:10;;;;;;;;;23.50;20.50;;;;;14.67;75.13;99974.22;5070704;28;10101;-66
2022/05/24 00:58:45;;;;;;;;;20.75;20.00;;;;;14.65;75.32;99973.63;5089750;28;9917;-66
2022/05/24 01:01:31;;;;;;;;;23.50;22.25;;;;;14.61;75.17;99966.22;5090974;28;10065;-66
2022/05/24 01:03:57;;;;;;;;;31.50;28.25;;;;;14.57;75.23;99971.31;5090757;28;9986;-67
2022/05/24 01:06:24;;;;;;;;;24.00;21.00;;;;;14.59;75.56;99951.06;5089410;28;10109;-66
2022/05/24 01:08:54;;;;;;;;;25.75;21.50;;;;;14.63;75.04;99948.69;5070572;28;9858;-66
2022/05/24 01:11:22;;;;;;;;;25.00;24.00;;;;;14.66;75.48;99948.19;5070275;28;9843;-66
2022/05/24 01:13:53;;;;;;;;;25.50;23.50;;;;;14.64;75.22;99946.81;5070634;28;9954;-66
2022/05/24 01:16:19;;;;;;;;;18.75;18.25;;;;;14.66;75.25;99955.50;5052980;28;9913;-67
2022/05/24 01:18:46;;;;;;;;;21.00;19.00;;;;;14.65;75.26;99946.53;5057193;28;9767;-67
2022/05/24 01:21:16;;;;;;;;;22.75;19.75;;;;;14.64;74.99;99944.91;5070017;28;10448;-66
2022/05/24 01:23:53;;;;;;;;;16.50;16.50;;;;;14.61;75.19;99944.56;5069805;28;9994;-67
2022/05/24 01:26:49;;;;;;;;;18.50;17.00;;;;;14.63;75.36;99959.53;5070365;28;9844;-66
2022/05/24 01:29:20;;;;;;;;;17.00;15.00;;;;;14.63;75.17;99953.28;5088574;28;9728;-67
2022/05/24 01:37:20;;;;;;;;;22.00;20.00;;;;;14.64;75.06;99963.88;5081007;28;9903;-67
2022/05/24 01:39:52;;;;;;;;;18.75;18.25;;;;;14.62;75.08;99970.59;5070227;28;10083;-67
2022/05/24 01:42:19;;;;;;;;;20.75;18.75;;;;;14.62;74.96;99970.59;5051790;28;10803;-67
2022/05/24 01:44:56;;;;;;;;;20.75;18.75;;;;;14.61;75.17;99969.75;5070120;28;9798;-67
2022/05/24 01:47:24;;;;;;;;;20.25;20.00;;;;;14.61;75.17;99967.06;5078491;28;9849;-67
2022/05/24 01:49:56;;;;;;;;;18.25;16.25;;;;;14.63;75.34;99964.94;5081817;28;9973;-68
2022/05/24 01:52:30;;;;;;;;;26.00;20.25;;;;;14.59;75.00;99956.47;5069769;28;9827;-67
2022/05/24 01:55:03;;;;;;;;;13.25;11.50;;;;;14.61;75.56;99958.94;5082157;28;9846;-67
2022/05/24 01:57:36;;;;;;;;;17.25;15.00;;;;;14.61;75.16;99949.97;5079502;28;9662;-67
2022/05/24 02:00:05;;;;;;;;;16.00;15.00;;;;;14.57;74.79;99955.88;5052058;28;10557;-67
2022/05/24 02:02:41;;;;;;;;;14.25;11.25;;;;;14.52;74.92;99952.25;5069580;28;9762;-67
2022/05/24 02:05:08;;;;;;;;;16.50;16.00;;;;;14.51;75.38;99956.88;5069899;28;9722;-66
2022/05/24 02:07:35;;;;;;;;;18.00;17.00;;;;;14.48;75.39;99964.59;5080365;28;10743;-66
2022/05/24 02:10:03;;;;;;;;;13.75;12.75;;;;;14.47;75.44;99957.56;5081753;28;9557;-66
2022/05/24 02:12:38;;;;;;;;;16.50;13.50;;;;;14.50;75.16;99959.78;5090101;28;9585;-66
2022/05/24 02:15:07;;;;;;;;;12.00;10.25;;;;;14.52;75.38;99960.38;5090126;28;9577;-66
2022/05/24 02:17:59;;;;;;;;;18.50;14.50;;;;;14.47;74.96;99958.38;5078858;28;10405;-67
2022/05/24 02:20:32;;;;;;;;;19.50;18.25;;;;;14.46;75.27;99969.44;5067741;28;9673;-66
2022/05/24 02:22:59;;;;;;;;;16.50;13.75;;;;;14.43;75.43;99957.22;5069748;28;10070;-66
2022/05/24 02:25:43;;;;;;;;;16.00;15.00;;;;;14.42;75.42;99958.28;5069862;28;9834;-66
2022/05/24 02:28:10;;;;;;;;;18.00;18.00;;;;;14.39;75.40;99971.47;5067158;28;9875;-66
2022/05/24 02:30:46;;;;;;;;;16.50;15.75;;;;;14.32;75.13;99971.59;5090156;28;10121;-66
2022/05/24 02:33:12;;;;;;;;;19.75;19.75;;;;;14.27;75.05;99977.75;5090952;28;9912;-67
2022/05/24 02:35:40;;;;;;;;;17.25;14.00;;;;;14.29;74.92;99977.50;5074665;28;9871;-67
2022/05/24 02:38:06;;;;;;;;;15.50;15.00;;;;;14.26;75.00;99968.00;5077947;28;9701;-66
2022/05/24 02:43:18;;;;;;;;;18.00;16.25;;;;;14.27;74.54;99963.41;5073291;28;9729;-67
2022/05/24 02:45:45;;;;;;;;;15.00;14.00;;;;;14.25;74.06;99960.91;5073145;28;10443;-67
2022/05/24 02:48:12;;;;;;;;;18.25;15.50;;;;;14.24;74.42;99956.56;5088615;28;9653;-67
2022/05/24 02:50:38;;;;;;;;;20.25;17.00;;;;;14.26;74.42;99961.72;5093268;28;9839;-66
2022/05/24 02:53:05;;;;;;;;;19.25;17.50;;;;;14.18;74.07;99948.56;5092133;28;9735;-66
2022/05/24 02:55:31;;;;;;;;;20.25;18.00;;;;;14.15;74.25;99943.66;5093098;28;9801;-66
2022/05/24 02:57:58;;;;;;;;;23.25;15.25;;;;;14.19;74.42;99942.94;5078610;28;9970;-67
2022/05/24 03:00:26;;;;;;;;;15.25;15.00;;;;;14.25;74.36;99950.06;5072933;28;10459;-67
2022/05/24 03:02:53;;;;;;;;;14.75;14.50;;;;;14.23;74.03;99951.41;5072719;28;10806;-67
2022/05/24 03:05:26;;;;;;;;;21.75;18.00;;;;;14.21;73.74;99957.03;5072856;28;9853;-67
2022/05/24 03:10:38;;;;;;;;;20.00;16.75;;;;;14.19;73.90;99955.66;5091896;28;9884;-67
2022/05/24 03:15:50;;;;;;;;;27.75;22.75;;;;;14.13;73.88;99960.13;5093160;28;9832;-67
2022/05/24 03:18:18;;;;;;;;;20.25;19.50;;;;;14.11;73.65;99956.84;5093963;22;9900;-67
2022/05/24 03:20:45;;;;;;;;;15.25;14.50;;;;;14.10;73.85;99956.03;5052694;28;9829;-67
2022/05/24 03:23:12;;;;;;;;;19.75;18.75;;;;;14.12;73.78;99949.53;5052548;28;9905;-67
2022/05/24 03:25:39;;;;;;;;;20.75;14.75;;;;;14.15;73.87;99954.47;5052760;28;9981;-66
2022/05/24 03:28:08;;;;;;;;;21.75;20.25;;;;;14.15;73.96;99957.19;5051192;28;9872;-67
2022/05/24 03:30:43;;;;;;;;;16.00;15.75;;;;;14.19;74.09;99961.88;5052441;28;9818;-67
2022/05/24 03:33:10;;;;;;;;;20.50;16.75;;;;;14.18;74.40;99970.22;5066791;28;9761;-67
2022/05/24 03:35:38;;;;;;;;;19.50;16.75;;;;;14.17;73.97;99974.00;5052394;28;10788;-67
2022/05/24 03:38:04;;;;;;;;;20.00;18.50;;;;;14.13;74.08;99967.41;5051734;28;9900;-67
2022/05/24 03:40:31;;;;;;;;;15.75;14.75;;;;;14.07;73.52;99983.56;5051180;28;9838;-67
2022/05/24 03:42:58;;;;;;;;;25.75;20.25;;;;;14.05;73.91;99979.44;5052325;28;9832;-67
2022/05/24 03:45:26;;;;;;;;;17.75;14.00;;;;;14.03;74.24;99990.50;5051481;28;9953;-67
2022/05/24 03:47:52;;;;;;;;;14.75;14.25;;;;;14.08;74.44;99984.38;5051562;28;9930;-67
2022/05/24 03:50:20;;;;;;;;;26.75;20.25;;;;;14.12;74.25;99982.00;5039664;28;9875;-67
2022/05/24 03:52:47;;;;;;;;;24.25;17.25;;;;;14.08;74.03;99992.50;5032251;28;10013;-67
2022/05/24 03:55:13;;;;;;;;;18.00;15.25;;;;;14.05;74.09;99990.25;5032073;28;9969;-67
2022/05/24 04:00:26;;;;;;;;;13.25;12.50;;;;;14.05;74.42;99993.78;5051938;28;9987;-66
2022/05/24 04:02:53;;;;;;;;;15.25;15.25;;;;;14.05;74.52;100003.78;5050519;28;9895;-67
2022/05/24 04:05:19;;;;;;;;;22.50;20.00;;;;;14.04;74.55;100002.16;5051786;28;10056;-67
2022/05/24 04:07:46;;;;;;;;;17.50;14.25;;;;;14.02;74.57;100004.28;5047054;28;9935;-67
2022/05/24 04:10:13;;;;;;;;;17.25;15.00;;;;;14.03;74.36;100022.97;5050702;28;9854;-66
2022/05/24 04:12:40;;;;;;;;;25.25;22.75;;;;;14.01;74.43;100022.38;5050613;28;9814;-67
2022/05/24 04:15:07;;;;;;;;;19.75;18.50;;;;;13.99;74.30;100029.09;5051718;28;10058;-66
2022/05/24 04:17:36;;;;;;;;;20.75;20.50;;;;;13.89;74.47;100031.56;5050725;28;9828;-67
2022/05/24 04:20:04;;;;;;;;;19.25;16.25;;;;;13.89;74.96;100020.75;5051485;28;9967;-67
2022/05/24 04:22:30;;;;;;;;;15.00;14.75;;;;;13.93;74.88;100027.31;5051371;28;9830;-67
2022/05/24 04:24:57;;;;;;;;;14.25;13.25;;;;;13.97;74.71;100028.50;5051419;28;10461;-67
2022/05/24 04:27:24;;;;;;;;;15.25;12.75;;;;;14.00;74.66;100023.44;5047662;28;9820;-67
2022/05/24 04:29:53;;;;;;;;;16.75;13.50;;;;;14.01;74.63;100022.38;5045159;28;10545;-67
2022/05/24 04:32:21;;;;;;;;;12.25;12.25;;;;;14.01;74.59;100010.72;5040395;28;9690;-67
2022/05/24 04:34:48;;;;;;;;;15.25;15.25;;;;;14.01;74.39;100021.56;5051245;28;9897;-67
2022/05/24 04:37:15;;;;;;;;;11.00;11.00;;;;;14.03;74.62;100028.38;5049409;28;9931;-67
2022/05/24 04:39:42;;;;;;;;;11.75;10.00;;;;;14.02;74.74;100021.34;5051011;28;9839;-67
2022/05/24 04:42:24;;;;;;;;;12.25;11.50;;;;;14.05;75.00;100022.72;5043877;28;9910;-67
2022/05/24 04:44:57;;;;;;;;;9.00;9.00;;;;;14.02;74.10;100017.81;5042760;28;9590;-67
2022/05/24 04:47:28;;;;;;;;;9.00;8.50;;;;;14.00;74.54;100015.31;5050647;28;9746;-67
2022/05/24 04:49:57;;;;;;;;;10.75;6.00;;;;;14.00;74.47;100020.72;5050811;28;9674;-67
2022/05/24 04:52:29;;;;;;;;;10.00;7.75;;;;;14.03;74.57;100022.16;5049477;28;9651;-67
2022/05/24 04:54:56;;;;;;;;;6.00;6.00;;;;;14.05;74.49;100012.72;5051146;28;9561;-67
2022/05/24 04:57:22;;;;;;;;;7.25;6.50;;;;;14.05;74.45;100017.31;5049414;28;9529;-68
2022/05/24 04:59:49;;;;;;;;;4.25;4.00;;;;;14.08;74.64;100019.56;5050968;28;9613;-67
2022/05/24 05:02:17;;;;;;;;;6.00;5.50;;;;;14.06;74.45;100022.50;5050474;28;9569;-67
2022/05/24 05:04:44;;;;;;;;;6.50;4.75;;;;;14.05;74.29;100023.53;5049696;28;9750;-67
2022/05/24 05:07:11;;;;;;;;;4.75;4.75;;;;;14.06;74.42;100029.81;5037960;28;9588;-67
2022/05/24 05:09:38;;;;;;;;;6.25;5.00;;;;;14.01;74.14;100035.91;5050739;28;10208;-67
2022/05/24 05:12:07;;;;;;;;;4.67;4.67;;;;;14.03;74.26;100035.69;5050532;28;9450;-67
2022/05/24 05:14:36;;;;;;;;;4.00;4.00;;;;;14.03;74.17;100028.38;5050687;28;9370;-67
2022/05/24 05:17:09;;;;;;;;;6.67;3.67;;;;;14.04;74.07;100034.63;5049967;28;9436;-67
2022/05/24 05:19:36;;;;;;;;;4.50;4.50;;;;;14.03;73.93;100046.50;5049572;28;9426;-67
2022/05/24 05:22:02;;;;;;;;;4.50;4.50;;;;;14.02;73.88;100053.81;5050460;28;9537;-67
2022/05/24 05:24:30;;;;;;;;;7.75;7.00;;;;;13.98;73.42;100060.75;5050478;28;9460;-68
2022/05/24 05:26:56;;;;;;;;;2.00;2.00;;;;;14.00;73.75;100058.63;5050000;28;9544;-67
2022/05/24 05:32:22;;;;;;;;;3.00;2.00;;;;;14.01;73.45;100072.97;5022793;28;9459;-66
2022/05/24 05:34:49;;;;;;;;;3.67;2.67;;;;;13.99;73.61;100067.81;5046721;28;9232;-68
2022/05/24 05:37:16;;;;;;;;;6.00;3.00;;;;;14.00;73.62;100071.31;5032077;28;9532;-67
2022/05/24 05:39:46;;;;;;;;;2.67;2.00;;;;;13.96;73.78;100084.50;5050236;28;9495;-67
2022/05/24 05:42:13;;;;;;;;;2.33;2.33;;;;;13.97;73.74;100083.44;5050103;28;9942;-66
2022/05/24 05:44:39;;;;;;;;;5.00;2.67;;;;;13.97;73.91;100079.91;5050493;28;9274;-67
2022/05/24 05:47:06;;;;;;;;;1.00;1.00;;;;;13.98;73.71;100071.56;5048398;28;9368;-66
2022/05/24 05:49:33;;;;;;;;;3.67;3.00;;;;;14.00;73.39;100077.56;5031199;28;9279;-67
2022/05/24 05:51:59;;;;;;;;;2.00;1.00;;;;;14.06;73.54;100076.63;5049623;28;9363;-66
2022/05/24 05:54:26;;;;;;;;;5.33;2.33;;;;;14.06;73.52;100079.34;5049792;28;9296;-66
2022/05/24 05:56:52;;;;;;;;;7.00;4.33;;;;;14.05;73.28;100079.56;5049285;28;9357;-66
2022/05/24 05:59:19;;;;;;;;;6.00;3.67;;;;;14.05;73.51;100095.78;5049891;28;9278;-66
2022/05/24 06:01:46;;;;;;;;;7.00;4.67;;;;;14.08;73.44;100090.75;5049669;28;9295;-66
2022/05/24 06:04:12;;;;;;;;;9.50;8.75;;;;;14.12;73.57;100090.28;5049717;28;10242;-67
2022/05/24 06:06:44;;;;;;;;;11.75;10.25;;;;;14.07;73.60;100099.91;5047770;28;9528;-66
2022/05/24 06:09:11;;;;;;;;;12.25;11.50;;;;;14.01;73.21;100106.25;5052427;28;9534;-66
2022/05/24 06:11:37;;;;;;;;;12.50;9.50;;;;;13.98;73.21;100108.63;5053736;28;9881;-67
2022/05/24 06:14:04;;;;;;;;;14.50;13.00;;;;;13.93;73.06;100113.91;5053657;28;9578;-67
2022/05/24 06:16:32;;;;;;;;;10.75;10.75;;;;;13.96;73.29;100118.84;5053122;28;9692;-67
2022/05/24 06:18:59;;;;;;;;;10.00;9.50;;;;;13.94;72.78;100115.56;5046255;28;9545;-66
2022/05/24 06:21:26;;;;;;;;;11.75;9.00;;;;;13.96;72.82;100124.28;5050162;28;9661;-66
2022/05/24 06:23:52;;;;;;;;;10.25;8.50;;;;;13.80;72.46;100118.47;5053499;28;9924;-66
2022/05/24 06:26:21;;;;;;;;;12.00;11.25;;;;;13.76;72.76;100125.41;5053313;28;9636;-65
2022/05/24 06:28:48;;;;;;;;;12.00;10.00;;;;;13.76;72.84;100122.72;5052992;28;9839;-66
2022/05/24 06:31:14;;;;;;;;;9.50;7.50;;;;;13.78;72.79;100126.03;5053107;28;9831;-66
2022/05/24 06:33:41;;;;;;;;;6.00;6.00;;;;;13.84;72.78;100135.06;5048028;28;10398;-66
2022/05/24 06:36:07;;;;;;;;;7.75;6.75;;;;;13.87;72.20;100131.09;5033413;28;9750;-66
2022/05/24 06:38:36;;;;;;;;;5.75;5.75;;;;;13.93;72.23;100133.66;5052120;28;9584;-66
2022/05/24 06:41:04;;;;;;;;;8.75;7.00;;;;;13.99;72.09;100135.44;5044584;28;9693;-66
2022/05/24 06:43:32;;;;;;;;;7.25;7.25;;;;;14.07;71.59;100137.00;5042494;28;9448;-66
2022/05/24 06:45:59;;;;;;;;;8.00;6.75;;;;;14.14;71.66;100137.72;5042512;28;9675;-66
2022/05/24 06:48:26;;;;;;;;;9.75;8.50;;;;;14.21;71.59;100140.28;5041574;28;9499;-66
2022/05/24 06:50:52;;;;;;;;;8.25;8.25;;;;;14.19;71.03;100140.53;5042194;28;9588;-66
2022/05/24 06:53:19;;;;;;;;;13.75;12.25;;;;;14.13;70.98;100141.44;5041373;28;9707;-66
2022/05/24 06:55:45;;;;;;;;;10.50;9.00;;;;;14.08;71.25;100144.03;5052436;28;10397;-66
2022/05/24 06:58:12;;;;;;;;;7.75;7.75;;;;;14.02;71.10;100143.09;5051213;28;9587;-66
2022/05/24 07:03:29;;;;;;;;;10.50;10.50;;;;;13.98;70.91;100143.81;5052902;28;9688;-66
2022/05/24 07:05:56;;;;;;;;;10.75;8.25;;;;;13.96;70.71;100151.31;5035325;28;9861;-66
2022/05/24 07:08:23;;;;;;;;;10.75;10.00;;;;;14.03;70.58;100150.16;5032678;28;9695;-66
2022/05/24 07:10:49;;;;;;;;;10.00;9.00;;;;;14.10;70.27;100147.34;5032806;28;10331;-65
2022/05/24 07:13:18;;;;;;;;;10.00;8.25;;;;;14.13;69.92;100154.16;5033277;28;9683;-66
2022/05/24 07:15:45;;;;;;;;;7.00;7.00;;;;;14.22;69.99;100174.41;5032903;28;9590;-65
2022/05/24 07:18:13;;;;;;;;;9.25;9.00;;;;;14.24;69.89;100177.72;5032713;28;9519;-66
2022/05/24 07:20:39;;;;;;;;;12.00;10.25;;;;;14.18;69.63;100171.38;5031791;28;9624;-66
2022/05/24 07:23:18;;;;;;;;;7.00;7.00;;;;;14.24;69.82;100192.06;5033274;28;9604;-66
2022/05/24 07:25:46;;;;;;;;;8.00;7.50;;;;;14.20;69.63;100182.78;5033133;28;9369;-66
2022/05/24 07:28:22;;;;;;;;;7.50;6.25;;;;;14.28;69.79;100181.59;5032085;28;9533;-66
2022/05/24 07:30:49;;;;;;;;;8.50;7.25;;;;;14.31;69.82;100184.66;5032534;28;9521;-66
2022/05/24 07:33:16;;;;;;;;;7.75;7.75;;;;;14.34;69.83;100195.03;5032899;28;9437;-66
2022/05/24 07:35:43;;;;;;;;;3.00;3.00;;;;;14.36;69.66;100208.31;5032521;28;9618;-67
2022/05/24 07:38:11;;;;;;;;;6.00;6.00;;;;;14.35;69.21;100196.69;5032996;28;9466;-66
2022/05/24 07:46:12;;;;;;;;;2.00;2.00;;;;;14.25;68.57;100215.38;5032548;28;9389;-66
2022/05/24 07:48:40;;;;;;;;;3.00;3.00;;;;;14.29;68.38;100219.25;5032281;28;9294;-65
2022/05/24 07:51:08;;;;;;;;;2.33;2.33;;;;;14.31;68.02;100214.44;5032080;28;9989;-65
2022/05/24 07:53:35;;;;;;;;;3.00;3.00;;;;;14.24;67.97;100227.25;5032356;28;9218;-66
2022/05/24 07:56:03;;;;;;;;;3.33;3.33;;;;;14.17;68.20;100229.25;5032090;28;9520;-65
2022/05/24 07:58:30;;;;;;;;;2.00;2.00;;;;;14.19;68.15;100229.03;5031580;28;9453;-65
2022/05/24 08:00:58;;;;;;;;;3.00;3.00;;;;;14.30;68.48;100231.75;5031856;28;9319;-66
2022/05/24 08:03:25;;;;;;;;;4.50;4.50;;;;;14.45;68.29;100225.03;5049900;28;9379;-65
2022/05/24 08:05:52;;;;;;;;;5.25;5.25;;;;;14.54;68.06;100237.19;5052127;28;9362;-66
2022/05/24 08:08:19;;;;;;;;;4.00;4.00;;;;;14.53;67.61;100236.38;5051568;28;9442;-65
2022/05/24 08:10:45;;;;;;;;;2.67;2.67;;;;;14.57;68.05;100239.44;5051764;28;9548;-65
2022/05/24 08:13:15;;;;;;;;;4.00;3.00;;;;;14.61;67.80;100237.91;5051867;28;9276;-65
2022/05/24 08:15:42;;;;;;;;;2.00;2.00;;;;;14.66;67.98;100243.44;5050809;28;9219;-66
2022/05/24 08:18:09;;;;;;;;;7.00;6.50;;;;;14.66;68.77;100243.44;5051278;28;9205;-66
2022/05/24 08:20:37;;;;;;;;;2.67;2.67;;;;;14.59;69.12;100254.41;5051630;28;9446;-65
2022/05/24 08:23:04;;;;;;;;;2.33;2.00;;;;;14.48;69.84;100267.91;5051553;28;9250;-65
2022/05/24 08:25:37;;;;;;;;;0.67;0.67;;;;;14.31;70.71;100251.53;5051570;28;10058;-66
2022/05/24 08:28:07;;;;;;;;;2.00;2.00;;;;;14.17;71.52;100250.91;5051008;28;9988;-66
2022/05/24 08:30:35;;;;;;;;;1.00;1.00;;;;;14.07;72.16;100258.78;5050235;28;9412;-65
2022/05/24 08:33:04;;;;;;;;;5.50;2.00;;;;;14.06;72.38;100265.25;5051649;28;9281;-65
2022/05/24 08:35:33;;;;;;;;;2.00;2.00;;;;;13.99;72.67;100278.03;5051234;28;9364;-66
2022/05/24 08:38:01;;;;;;;;;6.33;4.00;;;;;13.92;73.03;100274.59;5051036;28;9365;-66
2022/05/24 08:40:28;;;;;;;;;2.75;2.75;;;;;13.77;72.76;100283.97;5050283;28;10199;-66
2022/05/24 08:43:04;;;;;;;;;2.00;1.00;;;;;13.64;72.86;100280.59;5051066;28;9499;-65
2022/05/24 08:48:48;;;;;;;;;5.00;2.00;;;;;13.64;73.20;100284.13;5050689;28;9539;-65
2022/05/24 08:51:27;;;;;;;;;3.25;2.75;;;;;13.71;73.37;100292.16;5050796;28;9660;-65
2022/05/24 08:53:57;;;;;;;;;4.50;3.25;;;;;13.65;72.82;100293.06;5050993;28;9517;-66
2022/05/24 08:56:29;;;;;;;;;4.50;2.25;;;;;13.55;72.95;100296.31;5034642;28;9663;-66
2022/05/24 08:59:21;;;;;;;;;2.50;2.50;;;;;13.52;72.77;100296.75;5030746;28;9439;-65
2022/05/24 09:01:50;;;;;;;;;2.75;2.75;;;;;13.52;73.00;100299.47;5030718;28;9436;-65
2022/05/24 09:04:17;;;;;;;;;6.75;3.50;;;;;13.58;73.03;100309.41;5030817;28;9490;-66
2022/05/24 09:06:55;;;;;;;;;6.00;6.00;;;;;13.64;72.94;100319.28;5030545;28;9738;-65
2022/05/24 09:09:41;;;;;;;;;8.50;8.50;;;;;13.82;73.46;100308.47;5030879;28;9759;-66
2022/05/24 09:12:31;;;;;;;;;7.75;7.75;;;;;13.93;72.81;100320.38;5030475;28;9676;-65
2022/05/24 09:15:16;;;;;;;;;6.00;6.00;;;;;13.87;72.29;100332.13;5030407;28;9745;-66
2022/05/24 09:17:51;;;;;;;;;8.75;7.75;;;;;13.85;72.35;100329.66;5031443;28;9594;-64
2022/05/24 09:20:24;;;;;;;;;7.00;6.00;;;;;13.78;72.00;100330.78;5031020;28;10454;-64
2022/05/24 09:22:57;;;;;;;;;6.75;6.50;;;;;13.76;72.17;100331.00;5030941;28;9680;-63
2022/05/24 09:25:24;;;;;;;;;7.75;7.75;;;;;13.78;71.71;100345.13;5050240;28;9667;-63
2022/05/24 09:27:53;;;;;;;;;10.00;8.00;;;;;13.81;71.57;100347.41;5051016;28;9684;-64
2022/05/24 09:30:20;;;;;;;;;5.75;5.75;;;;;13.74;70.94;100349.34;5050796;28;9595;-63
2022/05/24 09:32:47;;;;;;;;;5.75;5.75;;;;;13.70;70.86;100358.97;5051548;28;9653;-64
2022/05/24 09:35:16;;;;;;;;;10.25;7.50;;;;;13.71;70.88;100355.19;5050998;28;9507;-63
2022/05/24 09:38:04;;;;;;;;;7.75;7.75;;;;;13.80;70.94;100366.53;5048405;28;9624;-62
2022/05/24 09:40:44;;;;;;;;;6.00;5.25;;;;;13.90;70.78;100374.13;5050805;28;9758;-65
2022/05/24 09:43:29;;;;;;;;;8.50;7.00;;;;;13.83;70.50;100376.91;5050335;28;10387;-64
2022/05/24 09:46:02;;;;;;;;;6.50;5.75;;;;;13.84;70.54;100381.25;5050955;28;9896;-63
2022/05/24 09:48:32;;;;;;;;;12.50;9.75;;;;;13.89;70.63;100384.09;5050844;28;9519;-64
2022/05/24 09:51:01;;;;;;;;;8.50;8.25;;;;;13.97;70.68;100393.78;5050596;28;9791;-64
2022/05/24 09:53:31;;;;;;;;;10.75;10.50;;;;;14.04;70.18;100397.25;5049709;28;9609;-64
2022/05/24 09:56:02;;;;;;;;;5.00;5.00;;;;;14.17;70.53;100407.91;5050644;28;9728;-64
2022/05/24 09:58:39;;;;;;;;;5.75;5.00;;;;;14.22;69.36;100404.50;5050198;28;10289;-64
2022/05/24 10:01:11;;;;;;;;;10.25;7.75;;;;;14.18;68.97;100414.13;5040727;28;9585;-65
2022/05/24 10:03:42;;;;;;;;;7.75;6.50;;;;;14.14;68.97;100415.66;5030462;28;9509;-64
2022/05/24 10:06:19;;;;;;;;;7.00;6.50;;;;;14.23;68.95;100415.13;5031021;28;9532;-65
2022/05/24 10:08:49;;;;;;;;;7.50;6.50;;;;;14.24;68.97;100435.72;5029594;28;9463;-65
2022/05/24 10:11:29;;;;;;;;;7.33;6.00;;;;;14.19;68.33;100432.06;5030577;28;9470;-65
2022/05/24 10:14:17;;;;;;;;;8.00;5.75;;;;;14.16;67.95;100441.44;5029413;28;9370;-65
2022/05/24 10:16:52;;;;;;;;;5.50;5.50;;;;;14.19;68.11;100442.88;5030120;28;9352;-65
2022/05/24 10:19:35;;;;;;;;;6.00;6.00;;;;;14.25;67.51;100442.78;5031511;28;9435;-65
2022/05/24 10:22:33;;;;;;;;;5.00;5.00;;;;;14.33;67.35;100447.88;5031196;28;9374;-65
2022/05/24 10:25:18;;;;;;;;;5.00;3.00;;;;;14.41;66.61;100462.97;5031318;28;9453;-65
2022/05/24 10:28:01;;;;;;;;;3.00;3.00;;;;;14.44;66.06;100462.53;5046363;28;9382;-64
2022/05/24 10:30:36;;;;;;;;;2.00;2.00;;;;;14.48;66.11;100460.19;5030720;28;9255;-65
2022/05/24 10:39:56;;;;;;;;;2.00;2.00;;;;;14.74;65.77;100473.38;5029306;28;9384;-66
2022/05/24 10:42:48;;;;;;;;;1.00;1.00;;;;;14.76;65.75;100479.41;5030822;28;9220;-64
2022/05/24 10:45:49;;;;;;;;;3.00;3.00;;;;;14.75;65.00;100477.75;5031229;28;9251;-64
2022/05/24 10:48:15;;;;;;;;;3.67;2.33;;;;;14.71;65.29;100484.69;5030240;28;9383;-64
2022/05/24 10:50:52;;;;;;;;;4.00;3.00;;;;;14.64;64.74;100489.38;5030936;28;9359;-64
2022/05/24 10:53:42;;;;;;;;;4.33;2.00;;;;;14.61;64.88;100486.31;5030629;28;9361;-64
2022/05/24 10:56:32;;;;;;;;;2.00;2.00;;;;;14.77;64.83;100486.47;5033067;28;9292;-65
2022/05/24 10:59:43;;;;;;;;;2.00;2.00;;;;;14.89;63.62;100491.09;5034361;28;9306;-64
2022/05/24 11:02:52;;;;;;;;;1.00;1.00;;;;;14.89;62.56;100493.81;5003125;28;9039;-65
2022/05/24 11:05:36;;;;;;;;;2.00;2.00;;;;;14.97;62.90;100493.50;4990542;28;9280;-64
2022/05/24 11:08:29;;;;;;;;;2.33;2.00;;;;;15.03;62.93;100503.41;5033692;28;9167;-64
2022/05/24 11:11:00;;;;;;;;;3.67;3.00;;;;;15.00;62.59;100502.00;5033733;28;9177;-64
2022/05/24 11:13:40;;;;;;;;;5.33;5.33;;;;;14.90;62.57;100503.59;5033763;28;9051;-66
2022/05/24 11:16:15;;;;;;;;;3.33;3.33;;;;;14.83;62.92;100507.25;5034251;28;9219;-64
2022/05/24 11:18:42;;;;;;;;;6.67;3.00;;;;;14.68;62.74;100508.72;5033959;28;9185;-64
2022/05/24 11:21:31;;;;;;;;;2.33;2.33;;;;;14.62;63.00;100507.72;5034134;28;9001;-64
2022/05/24 11:24:06;;;;;;;;;4.33;2.00;;;;;14.69;61.86;100508.47;5034047;28;9314;-64
2022/05/24 11:26:39;;;;;;;;;2.67;2.67;;;;;14.76;62.46;100511.94;5034085;28;9098;-64
2022/05/24 11:29:18;;;;;;;;;3.00;3.00;;;;;14.83;62.16;100509.94;5044595;28;9233;-64
2022/05/24 11:31:47;;;;;;;;;3.00;3.00;;;;;14.95;61.45;100512.72;5053946;28;9256;-64
2022/05/24 11:34:27;;;;;;;;;4.33;4.33;;;;;15.03;60.96;100519.69;5053636;28;9210;-63
2022/05/24 11:37:06;;;;;;;;;3.67;3.67;;;;;14.99;60.61;100519.31;5051634;28;9227;-65
2022/05/24 11:39:37;;;;;;;;;5.00;4.00;;;;;14.92;60.17;100512.34;5053895;28;9243;-64
2022/05/24 11:42:21;;;;;;;;;2.00;2.00;;;;;15.01;60.80;100533.44;5052669;28;9083;-65
2022/05/24 11:44:54;;;;;;;;;3.00;3.00;;;;;15.16;61.49;100534.91;5054121;28;9280;-66
2022/05/24 11:47:46;;;;;;;;;2.67;2.67;;;;;15.31;61.92;100540.72;5053264;28;9074;-64
2022/05/24 11:50:37;;;;;;;;;5.00;4.33;;;;;15.34;60.52;100538.34;5053228;28;9163;-64
2022/05/24 11:53:07;;;;;;;;;4.00;3.00;;;;;15.45;61.12;100534.03;5053486;28;9065;-64
2022/05/24 11:55:42;;;;;;;;;6.33;4.33;;;;;15.63;61.34;100545.84;5053475;28;8996;-64
2022/05/24 11:58:21;;;;;;;;;1.67;1.67;;;;;15.87;60.61;100549.41;5051814;28;9047;-64
2022/05/24 12:01:03;;;;;;;;;2.00;2.00;;;;;16.00;59.59;100560.88;5052046;28;9002;-62
2022/05/24 12:09:24;;;;;;;;;1.00;1.00;;;;;15.80;57.78;100569.38;5053097;28;9114;-65
2022/05/24 12:12:27;;;;;;;;;1.00;1.00;;;;;15.79;57.42;100569.59;5051805;28;8906;-64
2022/05/24 12:15:12;;;;;;;;;3.33;3.00;;;;;15.62;57.21;100566.72;5053111;28;8895;-64
2022/05/24 12:17:40;;;;;;;;;2.00;2.00;;;;;15.49;57.81;100573.19;5052537;28;9009;-64
2022/05/24 12:20:34;;;;;;;;;1.00;1.00;;;;;15.65;58.05;100576.31;5053015;28;8903;-67
2022/05/24 12:23:04;;;;;;;;;2.00;1.00;;;;;15.76;57.52;100580.94;5052623;28;8925;-64
2022/05/24 12:26:13;;;;;;;;;2.50;2.50;;;;;15.75;56.68;100574.66;5050335;28;8995;-63
2022/05/24 12:28:53;;;;;;;;;1.00;1.00;;;;;15.77;57.29;100591.53;5052285;28;8817;-63
2022/05/24 12:31:23;;;;;;;;;1.00;1.00;;;;;15.92;56.36;100582.94;5052892;28;8920;-64